Time;durP1;ratioP1;P1;durP2;ratioP2;P2;SDS_P1;SDS_P2;PMS_P1;PMS_P2;Temp;Humidity;BMP_temperature;BMP_pressure;BME280_temperature;BME280_humidity;BME280_pressure;Samples;Min_cycle;Max_cycle;Signal;HPM_P1;HPM_P2
2021/07/27 00:01:37;;;;;;;20.25;14.05;;;;;;;18.22;95.53;99784.42;1830936;77;21092;-75
2021/07/27 00:04:04;;;;;;;21.23;13.98;;;;;;;18.18;95.43;99789.09;1836897;77;21675;-73
2021/07/27 00:06:31;;;;;;;27.45;15.28;;;;;;;18.14;95.46;99777.08;1842270;77;20921;-73
2021/07/27 00:08:58;;;;;;;22.73;13.90;;;;;;;18.12;95.50;99774.66;1842544;77;20910;-73
2021/07/27 00:11:25;;;;;;;21.75;14.53;;;;;;;18.08;95.62;99776.55;1842406;77;20985;-73
2021/07/27 00:13:52;;;;;;;22.05;14.43;;;;;;;18.05;95.67;99772.30;1842373;77;21122;-73
2021/07/27 00:16:19;;;;;;;20.37;14.65;;;;;;;18.00;95.62;99776.73;1842895;77;20937;-73
2021/07/27 00:18:45;;;;;;;20.05;14.33;;;;;;;17.97;95.74;99781.04;1842432;77;20866;-73
2021/07/27 00:21:12;;;;;;;20.62;13.45;;;;;;;17.93;95.72;99777.95;1842359;77;21471;-73
2021/07/27 00:23:38;;;;;;;18.95;14.30;;;;;;;17.90;96.17;99778.11;1842382;77;20949;-74
2021/07/27 00:26:12;;;;;;;21.35;15.43;;;;;;;17.86;96.36;99775.03;1842717;77;21940;-74
2021/07/27 00:28:39;;;;;;;21.62;14.40;;;;;;;17.83;96.34;99769.61;1842697;77;20870;-72
2021/07/27 00:31:06;;;;;;;19.10;13.90;;;;;;;17.78;96.68;99771.27;1843008;77;20842;-72
2021/07/27 00:33:34;;;;;;;24.72;13.78;;;;;;;17.73;96.73;99772.34;1834668;77;20946;-72
2021/07/27 00:36:03;;;;;;;21.82;13.93;;;;;;;17.69;96.74;99771.44;1778001;79;20955;-74
2021/07/27 00:38:30;;;;;;;19.52;13.88;;;;;;;17.67;96.94;99769.60;1809745;79;21135;-72
2021/07/27 00:40:56;;;;;;;23.65;13.75;;;;;;;17.66;97.23;99766.60;1821872;77;20826;-74
2021/07/27 00:43:24;;;;;;;18.67;13.03;;;;;;;17.62;97.16;99760.12;1817586;77;20917;-74
2021/07/27 00:45:51;;;;;;;22.07;13.68;;;;;;;17.59;97.45;99755.28;1810612;79;21468;-74
2021/07/27 00:48:17;;;;;;;19.92;14.28;;;;;;;17.58;97.66;99762.00;1810987;79;20909;-73
2021/07/27 00:50:46;;;;;;;23.00;14.25;;;;;;;17.58;97.59;99767.55;1810866;79;20893;-73
2021/07/27 00:53:14;;;;;;;22.02;14.68;;;;;;;17.57;97.67;99760.97;1779904;79;20866;-74
2021/07/27 00:55:42;;;;;;;23.12;14.45;;;;;;;17.55;97.49;99764.09;1810928;79;20866;-74
2021/07/27 00:58:08;;;;;;;21.17;13.65;;;;;;;17.52;97.50;99757.06;1810782;79;20917;-74
2021/07/27 01:00:35;;;;;;;24.00;14.93;;;;;;;17.49;97.67;99758.00;1779588;79;20965;-73
2021/07/27 01:03:02;;;;;;;23.57;13.98;;;;;;;17.47;97.66;99756.75;1779235;79;21101;-73
2021/07/27 01:05:29;;;;;;;19.37;14.15;;;;;;;17.45;97.74;99760.46;1799546;79;20934;-73
2021/07/27 01:08:00;;;;;;;23.05;14.93;;;;;;;17.41;97.81;99752.62;1799617;79;20918;-73
2021/07/27 01:10:27;;;;;;;22.40;13.60;;;;;;;17.40;98.08;99748.23;1799534;79;20969;-72
2021/07/27 01:12:55;;;;;;;26.05;13.65;;;;;;;17.38;98.18;99747.78;1812954;78;20874;-73
2021/07/27 01:15:23;;;;;;;19.92;14.28;;;;;;;17.37;98.30;99746.98;1817969;78;20937;-74
2021/07/27 01:17:59;;;;;;;23.90;14.07;;;;;;;17.36;98.22;99745.36;1832167;78;20913;-74
2021/07/27 01:39:26;;;;;;;27.98;15.80;;;;;;;17.17;98.84;99746.66;1819847;78;20905;-74
2021/07/27 01:42:08;;;;;;;19.32;15.48;;;;;;;17.15;98.96;99748.40;1739925;82;21164;-74
2021/07/27 01:44:47;;;;;;;20.97;14.93;;;;;;;17.13;99.21;99747.95;1761753;81;20845;-74
2021/07/27 01:47:22;;;;;;;23.10;15.00;;;;;;;17.13;99.47;99748.52;1761977;81;21011;-75
2021/07/27 01:49:50;;;;;;;21.60;14.68;;;;;;;17.12;99.53;99746.91;1761683;81;20941;-73
2021/07/27 01:52:17;;;;;;;22.10;14.87;;;;;;;17.09;99.67;99750.39;1761748;81;20917;-72
2021/07/27 01:54:53;;;;;;;20.40;15.03;;;;;;;17.05;99.68;99753.06;1739653;82;21192;-72
2021/07/27 01:57:22;;;;;;;20.27;15.40;;;;;;;17.04;99.96;99747.88;1761916;81;20981;-73
2021/07/27 02:00:04;;;;;;;23.18;14.38;;;;;;;17.04;100.00;99750.65;1739572;82;20933;-71
2021/07/27 02:02:32;;;;;;;25.92;16.00;;;;;;;17.04;100.00;99747.88;1761675;81;20936;-72
2021/07/27 02:04:58;;;;;;;20.20;14.80;;;;;;;17.02;100.00;99747.42;1746895;82;20868;-72
2021/07/27 02:07:25;;;;;;;20.95;15.63;;;;;;;17.02;100.00;99745.45;1781802;80;21084;-72
2021/07/27 02:09:58;;;;;;;24.98;15.30;;;;;;;17.01;100.00;99739.68;1750664;82;20924;-72
2021/07/27 02:12:23;;;;;;;23.52;15.00;;;;;;;17.00;100.00;99744.19;1780597;80;21034;-73
2021/07/27 02:15:07;;;;;;;25.95;15.93;;;;;;;16.98;100.00;99745.94;1750688;82;20936;-73
2021/07/27 02:17:30;;;;;;;20.17;15.45;;;;;;;16.96;100.00;99741.33;1748076;80;20917;-74
2021/07/27 02:20:05;;;;;;;22.13;16.32;;;;;;;16.95;100.00;99734.74;1750742;82;21129;-73
2021/07/27 02:22:36;;;;;;;21.82;16.48;;;;;;;16.96;100.00;99744.67;1781508;80;21490;-73
2021/07/27 02:25:08;;;;;;;20.68;15.65;;;;;;;16.97;100.00;99736.58;1750795;82;20928;-73
2021/07/27 02:27:34;;;;;;;22.82;16.62;;;;;;;16.96;100.00;99741.33;1781718;80;20927;-73
2021/07/27 02:30:01;;;;;;;20.80;16.85;;;;;;;16.96;100.00;99741.91;1750822;82;20963;-72
2021/07/27 02:32:28;;;;;;;21.42;15.80;;;;;;;16.97;100.00;99741.55;1781793;80;21806;-80
2021/07/27 02:34:54;;;;;;;23.50;16.65;;;;;;;16.97;100.00;99740.16;1767269;80;20837;-76
2021/07/27 02:37:21;;;;;;;21.15;17.25;;;;;;;16.97;100.00;99742.13;1772554;81;20883;-84
2021/07/27 02:39:47;;;;;;;21.17;15.72;;;;;;;16.97;100.00;99742.13;1772885;78;20887;-82
2021/07/27 02:42:13;;;;;;;23.32;15.60;;;;;;;16.97;100.00;99742.13;1772344;81;20868;-83
2021/07/27 02:44:42;;;;;;;23.90;15.83;;;;;;;16.98;100.00;99746.52;1771802;81;20962;-89
2021/07/27 02:47:08;;;;;;;23.62;15.58;;;;;;;16.96;100.00;99739.94;1772484;81;20867;-77
2021/07/27 02:49:35;;;;;;;22.85;17.12;;;;;;;16.97;100.00;99735.20;1772792;81;20871;-77
2021/07/27 02:52:01;;;;;;;23.00;16.40;;;;;;;16.97;100.00;99737.39;1771787;81;21512;-76
2021/07/27 02:54:28;;;;;;;24.00;18.35;;;;;;;16.98;100.00;99740.97;1772762;81;21450;-78
2021/07/27 02:56:55;;;;;;;23.47;19.27;;;;;;;17.00;100.00;99736.69;1772606;81;21737;-76
2021/07/27 02:59:21;;;;;;;24.40;17.57;;;;;;;17.02;100.00;99737.72;1772840;81;20970;-77
2021/07/27 03:01:49;;;;;;;28.50;18.23;;;;;;;17.04;100.00;99737.59;1772515;81;21438;-80
2021/07/27 03:04:17;;;;;;;27.90;18.20;;;;;;;17.06;100.00;99733.87;1772384;81;20993;-78
2021/07/27 03:06:46;;;;;;;22.42;17.05;;;;;;;17.09;100.00;99733.17;1772934;81;20883;-84
2021/07/27 03:09:15;;;;;;;24.37;17.02;;;;;;;17.12;100.00;99738.01;1772592;80;21147;-87
2021/07/27 03:11:42;;;;;;;23.45;17.20;;;;;;;17.15;100.00;99733.14;1772551;81;20914;-84
2021/07/27 03:14:08;;;;;;;20.37;16.70;;;;;;;17.16;100.00;99733.95;1772592;81;20875;-76
2021/07/27 03:16:35;;;;;;;20.12;15.48;;;;;;;17.21;100.00;99742.59;1772679;79;21450;-81
2021/07/27 03:19:03;;;;;;;26.02;16.95;;;;;;;17.25;100.00;99745.69;1772521;79;20875;-77
2021/07/27 03:21:29;;;;;;;25.08;15.95;;;;;;;17.29;100.00;99744.40;1772817;81;21085;-78
2021/07/27 03:23:56;;;;;;;33.28;18.17;;;;;;;17.33;100.00;99738.36;1772462;81;21403;-80
2021/07/27 03:26:23;;;;;;;26.42;18.02;;;;;;;17.37;100.00;99739.23;1772455;81;20954;-81
2021/07/27 03:28:49;;;;;;;22.42;16.93;;;;;;;17.43;100.00;99744.75;1772555;81;20946;-87
2021/07/27 03:31:16;;;;;;;25.08;18.32;;;;;;;17.49;100.00;99741.93;1773312;78;20975;-78
2021/07/27 03:33:43;;;;;;;26.93;18.00;;;;;;;17.55;100.00;99741.89;1769797;80;23329;-83
2021/07/27 03:36:09;;;;;;;27.00;18.87;;;;;;;17.65;100.00;99737.23;1787317;80;20958;-79
2021/07/27 03:38:36;;;;;;;26.85;19.00;;;;;;;17.76;100.00;99738.88;1787469;80;21415;-75
2021/07/27 03:41:08;;;;;;;27.50;19.65;;;;;;;17.85;100.00;99731.76;1787401;80;20968;-68
2021/07/27 03:43:35;;;;;;;27.07;18.82;;;;;;;17.95;100.00;99733.38;1759556;80;21057;-73
2021/07/27 03:46:05;;;;;;;27.35;19.77;;;;;;;18.07;100.00;99735.24;1786735;80;21084;-76
2021/07/27 03:48:31;;;;;;;35.03;20.17;;;;;;;18.18;100.00;99732.72;1756031;80;20931;-75
2021/07/27 03:50:59;;;;;;;27.75;18.60;;;;;;;18.30;100.00;99736.77;1755045;81;21011;-73
2021/07/27 03:53:27;;;;;;;28.20;19.67;;;;;;;18.40;100.00;99734.23;1753593;81;21030;-73
2021/07/27 03:55:53;;;;;;;30.25;18.75;;;;;;;18.53;100.00;99739.63;1755419;81;20947;-73
2021/07/27 03:58:20;;;;;;;27.95;19.32;;;;;;;18.62;100.00;99736.08;1755179;81;21970;-72
2021/07/27 04:00:48;;;;;;;24.67;19.15;;;;;;;18.74;100.00;99729.80;1755831;81;20991;-73
2021/07/27 04:03:17;;;;;;;37.48;18.20;;;;;;;18.85;100.00;99723.65;1755280;81;21478;-70
2021/07/27 04:05:45;;;;;;;24.63;18.73;;;;;;;18.95;99.90;99723.87;1749729;81;21051;-72
2021/07/27 04:08:16;;;;;;;24.02;18.32;;;;;;;19.07;99.22;99732.02;1804838;79;20965;-71
2021/07/27 04:10:44;;;;;;;24.15;17.85;;;;;;;19.20;98.32;99731.86;1804589;79;21606;-72
2021/07/27 04:13:17;;;;;;;31.62;17.70;;;;;;;19.30;97.88;99723.71;1804251;79;20885;-71
2021/07/27 04:15:48;;;;;;;26.48;17.37;;;;;;;19.40;96.36;99723.69;1763503;81;20885;-69
2021/07/27 04:18:22;;;;;;;25.15;17.55;;;;;;;19.47;95.05;99718.25;1732039;82;21023;-77
2021/07/27 04:21:01;;;;;;;23.38;16.48;;;;;;;19.56;94.24;99716.05;1773573;80;21016;-78
2021/07/27 04:23:27;;;;;;;33.73;17.75;;;;;;;19.66;93.63;99714.59;1777628;79;21523;-75
2021/07/27 04:25:53;;;;;;;33.28;16.67;;;;;;;19.74;92.22;99714.34;1782074;80;20993;-73
2021/07/27 04:28:20;;;;;;;30.60;16.23;;;;;;;19.85;92.10;99716.50;1828469;77;21019;-73
2021/07/27 04:30:48;;;;;;;25.32;17.02;;;;;;;19.93;91.71;99718.22;1828940;77;22127;-72
2021/07/27 04:33:17;;;;;;;23.80;18.12;;;;;;;20.03;91.56;99714.80;1834231;78;20908;-71
2021/07/27 04:35:44;;;;;;;24.05;16.67;;;;;;;20.11;91.16;99713.73;1740059;82;21616;-70
2021/07/27 04:38:10;;;;;;;22.35;15.63;;;;;;;20.22;91.02;99710.48;1825590;78;20901;-74
2021/07/27 04:40:37;;;;;;;27.77;15.30;;;;;;;20.29;89.83;99708.38;1825993;78;20888;-74
2021/07/27 04:43:05;;;;;;;24.00;15.23;;;;;;;20.37;89.19;99711.48;1825999;77;21689;-73
2021/07/27 04:45:32;;;;;;;24.07;16.12;;;;;;;20.44;88.19;99713.01;1825968;78;20906;-72
2021/07/27 04:47:58;;;;;;;25.65;15.80;;;;;;;20.48;87.23;99711.66;1833336;78;21065;-73
2021/07/27 04:50:24;;;;;;;24.55;16.30;;;;;;;20.54;86.47;99711.55;1839911;78;20888;-73
2021/07/27 04:52:57;;;;;;;27.58;16.37;;;;;;;20.59;86.58;99713.41;1842017;77;20976;-73
2021/07/27 04:55:19;;;;;;;27.02;16.62;;;;;;;20.65;87.16;99707.72;1840586;78;21423;-72
2021/07/27 04:57:45;;;;;;;25.92;17.00;;;;;;;20.74;87.44;99710.22;1835388;77;20822;-73
2021/07/27 05:00:26;;;;;;;25.27;16.05;;;;;;;20.84;87.79;99712.30;1819945;78;21043;-73
2021/07/27 05:02:52;;;;;;;26.55;15.72;;;;;;;20.95;86.75;99713.23;1808347;78;21497;-74
2021/07/27 05:05:19;;;;;;;25.92;15.75;;;;;;;21.05;87.29;99706.97;1822191;77;20948;-74
2021/07/27 05:07:46;;;;;;;29.90;16.10;;;;;;;21.19;86.10;99713.89;1828861;77;20884;-75
2021/07/27 05:10:18;;;;;;;28.55;15.48;;;;;;;21.32;85.34;99713.86;1830565;77;20975;-72
2021/07/27 05:12:44;;;;;;;24.57;16.37;;;;;;;21.43;84.84;99707.75;1832655;77;21122;-72
2021/07/27 05:15:11;;;;;;;29.12;15.80;;;;;;;21.55;83.95;99710.86;1840125;77;21503;-72
2021/07/27 05:17:39;;;;;;;26.55;15.00;;;;;;;21.68;82.84;99710.77;1841188;77;21629;-72
2021/07/27 05:20:08;;;;;;;22.48;15.00;;;;;;;21.78;83.26;99706.47;1843732;77;21440;-73
2021/07/27 05:22:35;;;;;;;21.75;15.30;;;;;;;21.89;81.42;99700.37;1843025;77;20980;-73
2021/07/27 05:25:01;;;;;;;24.98;14.85;;;;;;;21.99;80.54;99712.19;1843457;77;21123;-72
2021/07/27 05:27:28;;;;;;;29.27;21.15;;;;;;;22.08;78.76;99705.10;1843705;77;21468;-72
2021/07/27 05:29:55;;;;;;;43.02;29.02;;;;;;;22.16;78.42;99707.34;1840351;77;20889;-72
2021/07/27 05:32:24;;;;;;;63.10;45.67;;;;;;;22.26;76.82;99707.21;1824805;77;20929;-72
2021/07/27 05:34:50;;;;;;;60.20;48.40;;;;;;;22.35;76.58;99700.08;1809453;79;20998;-73
2021/07/27 05:37:17;;;;;;;44.20;33.98;;;;;;;22.45;76.48;99704.72;1810204;79;21124;-74
2021/07/27 05:39:43;;;;;;;53.38;44.67;;;;;;;22.57;75.57;99700.96;1810156;79;21460;-74
2021/07/27 05:42:10;;;;;;;52.88;36.98;;;;;;;22.70;75.82;99707.82;1811835;77;21015;-71
2021/07/27 05:44:36;;;;;;;43.85;34.10;;;;;;;22.82;75.07;99708.09;1817926;77;20889;-71
2021/07/27 05:47:04;;;;;;;46.13;25.75;;;;;;;22.91;73.30;99704.33;1811029;79;21496;-71
2021/07/27 05:49:33;;;;;;;27.80;17.77;;;;;;;23.05;72.91;99708.58;1811146;79;21088;-71
2021/07/27 05:51:59;;;;;;;24.87;18.27;;;;;;;23.16;72.76;99706.38;1810970;79;20874;-71
2021/07/27 05:54:25;;;;;;;23.57;16.90;;;;;;;23.27;72.54;99708.00;1810792;79;20930;-72
2021/07/27 05:56:52;;;;;;;23.85;14.38;;;;;;;23.38;71.30;99710.22;1810749;79;21963;-70
2021/07/27 05:59:19;;;;;;;28.07;14.63;;;;;;;23.50;70.57;99707.64;1813773;77;20987;-71
2021/07/27 06:01:47;;;;;;;27.90;13.72;;;;;;;23.63;71.27;99712.28;1813105;77;21116;-71
2021/07/27 06:04:14;;;;;;;22.13;13.25;;;;;;;23.73;67.25;99709.25;1836426;77;20901;-73
2021/07/27 06:06:41;;;;;;;17.70;12.37;;;;;;;23.84;67.33;99710.06;1837603;77;20929;-72
2021/07/27 06:09:10;;;;;;;37.00;13.90;;;;;;;23.97;66.52;99709.85;1830097;77;21426;-73
2021/07/27 06:11:37;;;;;;;22.98;12.60;;;;;;;24.11;64.87;99714.64;1810887;79;21413;-72
2021/07/27 06:14:09;;;;;;;33.05;13.25;;;;;;;24.20;64.00;99713.03;1810822;79;21506;-72
2021/07/27 06:16:37;;;;;;;25.02;12.30;;;;;;;24.31;63.29;99722.23;1810950;79;20901;-72
2021/07/27 06:19:07;;;;;;;22.58;11.63;;;;;;;24.38;63.23;99724.21;1810785;79;21452;-73
2021/07/27 06:21:33;;;;;;;49.93;15.75;;;;;;;24.44;62.35;99717.59;1811001;79;20925;-71
2021/07/27 06:24:00;;;;;;;38.63;14.18;;;;;;;24.49;63.19;99719.98;1779537;79;21034;-73
2021/07/27 06:26:26;;;;;;;29.45;13.43;;;;;;;24.57;64.39;99718.15;1810919;79;21485;-71
2021/07/27 06:28:53;;;;;;;40.00;14.07;;;;;;;24.69;63.88;99715.50;1811059;79;20865;-71
2021/07/27 06:31:19;;;;;;;27.95;12.55;;;;;;;24.79;64.69;99717.47;1810778;79;20878;-74
2021/07/27 06:33:45;;;;;;;26.15;13.13;;;;;;;24.90;62.53;99721.61;1811060;79;20869;-72
2021/07/27 06:36:12;;;;;;;34.27;12.82;;;;;;;24.97;61.89;99715.98;1819118;77;20971;-72
2021/07/27 06:38:39;;;;;;;23.90;12.03;;;;;;;24.99;61.71;99717.18;1836998;77;21087;-72
2021/07/27 06:41:07;;;;;;;68.75;18.45;;;;;;;25.04;62.04;99715.95;1836940;77;20962;-71
2021/07/27 06:43:35;;;;;;;37.20;12.80;;;;;;;25.12;62.31;99709.09;1843276;77;21012;-75
2021/07/27 06:46:01;;;;;;;28.35;11.57;;;;;;;25.19;60.24;99714.66;1840676;77;20933;-74
2021/07/27 06:48:27;;;;;;;23.90;10.90;;;;;;;25.23;60.72;99715.45;1802891;78;20908;-72
2021/07/27 06:50:54;;;;;;;18.62;10.05;;;;;;;25.32;60.40;99717.20;1804165;79;21135;-75
2021/07/27 06:53:21;;;;;;;20.02;10.40;;;;;;;25.45;59.15;99714.67;1804348;79;20928;-72
2021/07/27 06:55:47;;;;;;;18.77;10.38;;;;;;;25.55;58.70;99717.22;1804209;79;20877;-72
2021/07/27 06:58:14;;;;;;;18.12;9.60;;;;;;;25.63;59.61;99713.94;1804156;79;20872;-73
2021/07/27 07:00:40;;;;;;;18.45;10.20;;;;;;;25.75;58.72;99712.67;1823621;77;21006;-73
2021/07/27 07:03:08;;;;;;;16.15;9.50;;;;;;;25.88;58.84;99707.34;1839033;77;21180;-73
2021/07/27 07:05:34;;;;;;;17.92;8.80;;;;;;;25.97;56.72;99697.22;1836731;77;21464;-73
2021/07/27 07:08:02;;;;;;;21.20;10.58;;;;;;;26.04;56.95;99708.98;1818660;78;20924;-75
2021/07/27 07:10:30;;;;;;;15.38;9.55;;;;;;;26.13;56.77;99712.11;1823327;78;21048;-74
2021/07/27 07:12:58;;;;;;;15.55;9.63;;;;;;;26.20;56.94;99703.59;1830971;78;20861;-73
2021/07/27 07:15:26;;;;;;;17.00;9.65;;;;;;;26.28;56.89;99705.73;1829618;78;20913;-73
2021/07/27 07:17:52;;;;;;;19.75;9.78;;;;;;;26.36;55.52;99702.27;1819902;78;20988;-72
2021/07/27 07:20:20;;;;;;;14.70;12.15;;;;;;;26.44;57.76;99695.34;1816471;78;21464;-71
2021/07/27 07:22:46;;;;;;;21.57;13.48;;;;;;;26.54;54.60;99697.23;1830525;78;21020;-72
2021/07/27 07:25:13;;;;;;;20.90;11.83;;;;;;;26.61;55.69;99691.49;1823405;78;20933;-71
2021/07/27 07:27:41;;;;;;;20.12;10.48;;;;;;;26.68;54.40;99692.81;1830781;78;21532;-72
2021/07/27 07:30:10;;;;;;;16.93;9.48;;;;;;;26.78;54.64;99698.92;1824115;78;20913;-73
2021/07/27 07:32:36;;;;;;;22.48;8.70;;;;;;;26.93;54.56;99696.11;1827563;78;20904;-72
2021/07/27 07:35:04;;;;;;;12.63;8.68;;;;;;;27.06;53.81;99692.76;1829078;78;20948;-72
2021/07/27 07:37:30;;;;;;;17.45;8.58;;;;;;;27.14;51.46;99695.66;1819707;78;21029;-72
2021/07/27 07:39:57;;;;;;;16.35;8.50;;;;;;;27.21;51.81;99699.76;1829886;77;21962;-71
2021/07/27 07:42:23;;;;;;;17.60;9.08;;;;;;;27.30;51.84;99701.44;1824766;78;20959;-73
2021/07/27 07:44:49;;;;;;;21.85;8.78;;;;;;;27.43;52.00;99696.81;1824217;78;21320;-72
2021/07/27 07:47:16;;;;;;;13.70;8.35;;;;;;;27.57;50.49;99692.36;1826264;78;21027;-74
2021/07/27 07:49:42;;;;;;;16.42;8.60;;;;;;;27.67;50.50;99695.47;1830038;78;21526;-72
2021/07/27 07:52:09;;;;;;;14.18;8.10;;;;;;;27.71;50.49;99701.84;1829100;78;23385;-73
2021/07/27 07:54:38;;;;;;;19.95;8.20;;;;;;;27.77;50.59;99698.69;1828844;78;20899;-74
2021/07/27 07:57:05;;;;;;;16.60;8.28;;;;;;;27.87;49.02;99695.69;1752322;81;20987;-72
2021/07/27 07:59:31;;;;;;;14.65;7.75;;;;;;;27.99;47.51;99697.10;1822905;78;21065;-72
2021/07/27 08:01:59;;;;;;;13.55;7.42;;;;;;;28.08;48.86;99694.52;1823376;78;20870;-74
2021/07/27 08:04:26;;;;;;;16.95;7.45;;;;;;;28.20;47.23;99694.51;1822214;78;21005;-72
2021/07/27 08:06:53;;;;;;;19.77;8.05;;;;;;;28.28;47.19;99698.03;1825809;78;21900;-72
2021/07/27 08:09:19;;;;;;;20.57;8.20;;;;;;;28.33;46.19;99695.47;1827512;78;20873;-69
2021/07/27 08:11:45;;;;;;;18.50;7.45;;;;;;;28.45;47.08;99698.27;1827378;78;21020;-68
2021/07/27 08:14:13;;;;;;;20.48;7.03;;;;;;;28.60;46.21;99693.94;1827567;78;21523;-68
2021/07/27 08:16:40;;;;;;;15.00;7.53;;;;;;;28.86;46.23;99693.63;1827541;78;21029;-69
2021/07/27 08:19:06;;;;;;;22.10;8.58;;;;;;;29.20;45.13;99698.91;1827654;78;20952;-72
2021/07/27 08:21:32;;;;;;;15.70;7.62;;;;;;;29.43;44.59;99688.11;1827729;78;20917;-71
2021/07/27 08:23:59;;;;;;;11.25;6.42;;;;;;;29.63;42.92;99695.87;1828285;78;20924;-72
2021/07/27 08:26:27;;;;;;;12.45;6.60;;;;;;;29.84;42.64;99686.86;1821684;78;20918;-79
2021/07/27 08:28:54;;;;;;;17.70;6.87;;;;;;;30.03;42.89;99686.60;1817177;78;21098;-71
2021/07/27 08:31:21;;;;;;;22.45;7.50;;;;;;;30.12;41.74;99686.73;1799989;79;21019;-71
2021/07/27 08:33:47;;;;;;;34.40;7.58;;;;;;;30.18;41.45;99683.54;1799865;79;20862;-71
2021/07/27 08:36:13;;;;;;;24.32;8.18;;;;;;;30.26;41.50;99688.39;1799509;79;21457;-72
2021/07/27 08:38:41;;;;;;;19.80;7.03;;;;;;;30.34;41.30;99691.20;1800377;79;20874;-74
2021/07/27 08:41:08;;;;;;;20.70;7.12;;;;;;;30.49;41.95;99681.69;1799821;79;21958;-78
2021/07/27 08:43:36;;;;;;;18.55;7.65;;;;;;;30.68;42.12;99682.14;1799487;79;20898;-74
2021/07/27 08:46:02;;;;;;;30.62;8.85;;;;;;;30.88;41.90;99672.05;1799602;79;20949;-73
2021/07/27 08:48:29;;;;;;;18.87;7.55;;;;;;;31.01;40.64;99671.44;1808620;78;21559;-75
2021/07/27 08:50:56;;;;;;;26.37;8.93;;;;;;;31.11;41.26;99670.94;1825304;77;20921;-76
2021/07/27 08:53:22;;;;;;;25.00;7.83;;;;;;;31.26;40.61;99663.58;1817514;78;21445;-75
2021/07/27 08:55:49;;;;;;;22.32;6.70;;;;;;;31.41;39.78;99668.17;1818708;78;21022;-75
2021/07/27 08:58:17;;;;;;;37.13;8.45;;;;;;;31.49;39.40;99668.11;1824599;78;20890;-77
2021/07/27 09:00:44;;;;;;;19.50;6.42;;;;;;;31.46;38.65;99666.98;1828394;78;21471;-77
2021/07/27 09:03:16;;;;;;;22.67;7.50;;;;;;;31.43;38.77;99668.52;1827051;77;21025;-76
2021/07/27 09:05:42;;;;;;;25.02;6.60;;;;;;;31.49;38.80;99664.65;1829755;78;21735;-76
2021/07/27 09:08:11;;;;;;;13.48;7.08;;;;;;;31.70;38.42;99663.18;1839564;77;20864;-75
2021/07/27 09:10:40;;;;;;;14.00;6.12;;;;;;;31.81;37.57;99669.88;1801111;78;20997;-76
2021/07/27 09:13:12;;;;;;;17.85;6.70;;;;;;;31.92;36.56;99655.32;1835619;77;21657;-76
2021/07/27 09:15:43;;;;;;;17.12;6.62;;;;;;;31.96;37.44;99665.30;1829312;77;21505;-75
2021/07/27 09:18:18;;;;;;;23.30;6.65;;;;;;;32.11;37.06;99669.23;1838277;77;21140;-74
2021/07/27 09:20:51;;;;;;;23.30;6.60;;;;;;;32.15;35.03;99665.64;1839592;77;21463;-73
2021/07/27 09:23:19;;;;;;;9.50;5.70;;;;;;;32.14;35.95;99666.89;1836590;77;20869;-76
2021/07/27 09:25:52;;;;;;;8.83;5.83;;;;;;;32.15;35.08;99667.06;1830805;78;20956;-71
2021/07/27 09:28:19;;;;;;;13.35;5.87;;;;;;;32.22;35.31;99659.54;1828803;77;21060;-72
2021/07/27 09:30:48;;;;;;;17.07;7.00;;;;;;;32.29;36.44;99655.05;1817337;77;21011;-74
2021/07/27 09:33:16;;;;;;;13.75;6.17;;;;;;;32.44;35.78;99654.04;1810100;79;21476;-73
2021/07/27 09:35:46;;;;;;;21.85;6.00;;;;;;;32.47;35.14;99654.54;1828957;77;20917;-72
2021/07/27 09:38:17;;;;;;;16.62;6.08;;;;;;;32.44;34.82;99656.88;1810857;79;21447;-69
2021/07/27 09:40:56;;;;;;;15.18;6.00;;;;;;;32.44;35.85;99651.83;1811006;79;21019;-69
2021/07/27 09:43:26;;;;;;;20.48;6.47;;;;;;;32.57;34.59;99646.88;1810823;79;21972;-69
2021/07/27 09:45:56;;;;;;;12.07;5.87;;;;;;;32.59;35.11;99647.20;1820224;77;20925;-72
2021/07/27 09:48:23;;;;;;;14.83;6.47;;;;;;;32.67;35.84;99652.78;1820063;77;21013;-77
2021/07/27 09:50:52;;;;;;;13.22;5.65;;;;;;;32.75;35.05;99650.46;1811272;79;20870;-70
2021/07/27 09:53:18;;;;;;;13.50;5.90;;;;;;;32.81;35.00;99642.32;1810796;79;20901;-70
2021/07/27 09:55:45;;;;;;;12.78;6.17;;;;;;;33.00;34.36;99643.18;1811230;79;21574;-70
2021/07/27 09:58:11;;;;;;;38.73;8.55;;;;;;;33.13;34.67;99644.50;1810623;79;21567;-70
2021/07/27 10:01:10;;;;;;;26.15;7.37;;;;;;;33.15;33.26;99644.20;1837295;77;20991;-71
2021/07/27 10:03:53;;;;;;;21.00;7.28;;;;;;;33.06;33.16;99650.48;1843433;77;21394;-71
2021/07/27 10:06:30;;;;;;;29.55;6.90;;;;;;;33.01;34.08;99643.97;1828914;77;20862;-71
2021/07/27 10:08:58;;;;;;;14.65;5.83;;;;;;;33.02;34.18;99632.13;1807130;78;21142;-72
2021/07/27 10:11:42;;;;;;;19.57;6.22;;;;;;;33.07;34.84;99630.73;1810601;79;21080;-72
2021/07/27 10:14:15;;;;;;;14.13;6.87;;;;;;;33.23;33.52;99633.33;1810537;79;21437;-73
2021/07/27 10:16:42;;;;;;;35.28;6.42;;;;;;;33.38;34.21;99626.45;1810843;79;20985;-70
2021/07/27 10:19:20;;;;;;;54.70;11.95;;;;;;;33.53;35.22;99638.80;1810699;79;20874;-76
2021/07/27 10:21:50;;;;;;;22.50;7.40;;;;;;;33.41;33.16;99634.84;1809785;79;21163;-73
2021/07/27 10:24:25;;;;;;;21.25;7.62;;;;;;;33.31;32.92;99631.81;1808270;79;21429;-75
2021/07/27 10:26:52;;;;;;;12.82;5.95;;;;;;;33.31;33.20;99632.44;1820533;77;21040;-78
2021/07/27 10:29:30;;;;;;;15.85;6.80;;;;;;;33.35;32.42;99627.39;1759490;81;22028;-81
2021/07/27 10:31:59;;;;;;;23.52;8.70;;;;;;;33.43;32.69;99630.90;1761602;80;20976;-77
2021/07/27 10:34:32;;;;;;;17.87;7.78;;;;;;;33.44;32.23;99633.91;1762789;80;21130;-78
2021/07/27 10:37:09;;;;;;;21.40;9.30;;;;;;;33.30;31.35;99625.16;1786103;79;21463;-78
2021/07/27 10:39:52;;;;;;;10.75;6.60;;;;;;;33.24;33.30;99622.11;1791072;79;21487;-80
2021/07/27 10:42:18;;;;;;;11.33;5.47;;;;;;;33.38;33.49;99621.56;1766427;80;21005;-78
2021/07/27 10:44:45;;;;;;;34.85;7.60;;;;;;;33.47;32.13;99629.33;1766646;80;21004;-81
2021/07/27 10:47:26;;;;;;;14.75;5.97;;;;;;;33.42;32.55;99622.83;1772665;79;39993;-82
2021/07/27 10:50:06;;;;;;;23.90;6.08;;;;;;;33.53;32.98;99627.42;1763111;80;21043;-78
2021/07/27 10:52:33;;;;;;;23.98;6.42;;;;;;;33.54;31.50;99626.78;1767030;80;21031;-77
2021/07/27 10:55:00;;;;;;;19.42;5.47;;;;;;;33.21;32.21;99624.47;1767605;80;20884;-78
2021/07/27 10:57:32;;;;;;;18.20;5.75;;;;;;;33.06;30.67;99627.09;1792536;79;20880;-77
2021/07/27 10:59:59;;;;;;;;;;;;;;;33.15;30.43;99626.34;1770572;80;21131;-75
2021/07/27 11:02:25;;;;;;;15.08;5.87;;;;;;;33.33;31.53;99625.02;1772337;80;20439;-77
2021/07/27 11:04:52;;;;;;;17.80;5.50;;;;;;;33.49;31.16;99623.96;1763447;81;20988;-76
2021/07/27 11:07:19;;;;;;;16.93;6.72;;;;;;;33.63;31.49;99616.84;1763217;81;21484;-83
2021/07/27 11:09:52;;;;;;;16.65;6.75;;;;;;;33.84;31.39;99621.66;1762302;81;20885;-80
2021/07/27 11:12:30;;;;;;;11.73;6.28;;;;;;;33.84;32.25;99624.50;1825571;78;22189;-77
2021/07/27 11:15:12;;;;;;;16.90;6.42;;;;;;;33.61;31.26;99620.80;1829011;78;20955;-82
2021/07/27 11:17:51;;;;;;;16.45;6.80;;;;;;;33.41;32.67;99626.94;1830434;78;22105;-82
2021/07/27 11:20:34;;;;;;;11.57;6.20;;;;;;;33.38;32.58;99617.92;1823160;78;20969;-76
2021/07/27 11:23:09;;;;;;;14.75;7.03;;;;;;;33.49;33.63;99608.31;1824833;78;21031;-77
2021/07/27 11:25:36;;;;;;;20.12;6.42;;;;;;;33.50;32.81;99614.80;1751933;81;21097;-76
2021/07/27 11:28:15;;;;;;;11.03;6.22;;;;;;;33.42;33.48;99607.97;1759709;81;20984;-76
2021/07/27 11:30:42;;;;;;;8.75;5.85;;;;;;;33.46;33.64;99604.35;1756659;80;20917;-76
2021/07/27 11:33:18;;;;;;;13.30;6.58;;;;;;;33.19;33.26;99598.55;1760597;81;21016;-76
2021/07/27 11:35:48;;;;;;;14.40;6.28;;;;;;;32.77;33.71;99607.55;1756924;81;21436;-77
2021/07/27 11:38:30;;;;;;;17.42;7.03;;;;;;;32.43;34.18;99604.16;1763077;81;23371;-75
2021/07/27 11:41:06;;;;;;;14.38;6.65;;;;;;;32.21;34.62;99601.95;1751610;81;20924;-75
2021/07/27 11:43:36;;;;;;;14.18;6.75;;;;;;;32.20;35.40;99601.78;1760040;81;20928;-75
2021/07/27 11:46:13;;;;;;;13.62;6.12;;;;;;;32.45;35.31;99594.55;1760024;79;20936;-75